Serra do Camapua, Brazil
Current Conditions -  °F | °C
As of 7:00 PM on Thursday 23 Oct 2014 (Local Time) from SBBH Reporting Station
Clear Clear  
Wind Chill: 75°   Ceiling: Unl
Heat Index: 75°   Visibility: 6mi
Dew Point: 57°   Wind: 12mph
Humidity: 53%   Direction: 80°E
Pressure: 30.06"   Gusts: NA
Location:  20.77°S, 44°W
Report Text: SBBH 232100Z 08010KT CAVOK 24/14 Q1018
Loading
Personal Weather Stations






























Interactive Weather Map
Tropical Storm Tracking
New forecast layout! Learn more

10-Day Weather Forecast

Advertisements
Track Severe Weather on mobile